MSC Canberra — H8KT — position and weather

sailwx.info

Track history (hours):
 
Tides and Currents Weather Stations Pressure Air Temp Water Temp Dewpoint Dewpoint Depression Visibility Wind Speed Wind Dir Waves Ship Positions

MSC Canberra

Last reported at 2018-Apr-20 04:39 UTC. Time now 2018-Apr-20 05:10 UTC.
Position N 19°13' W 096°08'.

Length 220 m; beam 30.6 m; draft 12 m.

Type: Ship (hazmat cat A). MMSI: 357455000.

Date/timePositionNaut miles runAvg speedWind from/ knotsBaromVisibWave heightAir tempDewpointWater temp
2018-Apr-20 04:39N 19°13' W 096°08'0 0.0
2018-Apr-20 04:18N 19°13' W 096°08'0 0.0
2018-Apr-20 03:51N 19°13' W 096°08'0 0.0
2018-Apr-20 01:51N 19°13' W 096°08'0 0.0
2018-Apr-20 01:21N 19°13' W 096°08'0 0.0
2018-Apr-20 00:54N 19°13' W 096°08'0 0.0
2018-Apr-20 00:12N 19°13' W 096°08'0 0.0
2018-Apr-19 23:33N 19°13' W 096°08'0 0.0
2018-Apr-19 23:24N 19°13' W 096°08'0 0.0
2018-Apr-19 22:39N 19°13' W 096°08'0 0.0
2018-Apr-19 22:24N 19°13' W 096°08'0 0.0
2018-Apr-19 21:21N 19°13' W 096°08'0 0.0
2018-Apr-19 20:54N 19°13' W 096°08'0 0.0
2018-Apr-19 20:30N 19°13' W 096°08'0 0.0
2018-Apr-19 19:57N 19°13' W 096°08'0 0.0
2018-Apr-19 19:21N 19°13' W 096°08'0 0.0
2018-Apr-19 18:09N 19°13' W 096°08'0 0.0
2018-Apr-19 17:57N 19°13' W 096°08'0 0.0
2018-Apr-19 16:51N 19°13' W 096°08'0 1.1
2018-Apr-19 16:29N 19°12' W 096°08'4 8.1
2018-Apr-19 15:59N 19°12' W 096°04'3 7.1
2018-Apr-19 15:30N 19°13' W 096°01'4 8.2
2018-Apr-19 14:59N 19°17' W 096°00'511.2
2018-Apr-19 14:30N 19°22' W 096°02'816.7
2018-Apr-19 14:00N 19°30' W 096°06'  
2018-Apr-15 11:59N 25°23' W 079°33'715.6
2018-Apr-15 11:30N 25°30' W 079°31'815.5
2018-Apr-15 11:00N 25°38' W 079°30'815.5
2018-Apr-15 10:31N 25°45' W 079°28'815.5
2018-Apr-15 10:00N 25°53' W 079°25'1115.7
2018-Apr-15 09:18N 26°03' W 079°22'516.6
2018-Apr-15 09:00N 26°07' W 079°18'  
2018-Apr-11 07:19N 26°11' W 078°32'1 0.6
2018-Apr-11 05:59N 26°11' W 078°33'0 0.5
2018-Apr-11 05:30N 26°11' W 078°33'0 0.4
2018-Apr-11 04:55N 26°11' W 078°33'0 0.6
2018-Apr-11 04:30N 26°11' W 078°33'0 0.7
2018-Apr-11 04:00N 26°12' W 078°33'0 0.6
2018-Apr-11 03:30N 26°12' W 078°33'35 5.1
2018-Apr-10 20:41N 26°36' W 079°02'210.4
2018-Apr-10 20:30N 26°37' W 079°03'510.5
2018-Apr-10 19:59N 26°42' W 079°06'510.1
2018-Apr-10 19:30N 26°47' W 079°07'101 7.3
2018-Apr-10 05:39N 27°53' W 077°40'1 9.3
2018-Apr-10 05:30N 27°53' W 077°39'5 9.2
2018-Apr-10 05:00N 27°54' W 077°34'  
Track history (hours):
 
Tides and Currents Weather Stations Pressure Air Temp Water Temp Dewpoint Dewpoint Depression Visibility Wind Speed Wind Dir Waves Ship Positions

MSC Canberra

Last reported at 2018-Apr-20 04:39 UTC. Time now 2018-Apr-20 05:10 UTC.
Position N 19°13' W 096°08'.

Length 220 m; beam 30.6 m; draft 12 m.

Type: Ship (hazmat cat A). MMSI: 357455000.

Date/timePositionNaut miles runAvg speedWind from/ knotsBaromVisibWave heightAir tempDewpointWater temp
2018-Apr-20 04:39N 19°13' W 096°08'0 0.0
2018-Apr-20 04:18N 19°13' W 096°08'0 0.0
2018-Apr-20 03:51N 19°13' W 096°08'0 0.0
2018-Apr-20 01:51N 19°13' W 096°08'0 0.0
2018-Apr-20 01:21N 19°13' W 096°08'0 0.0
2018-Apr-20 00:54N 19°13' W 096°08'0 0.0
2018-Apr-20 00:12N 19°13' W 096°08'0 0.0
2018-Apr-19 23:33N 19°13' W 096°08'0 0.0
2018-Apr-19 23:24N 19°13' W 096°08'0 0.0
2018-Apr-19 22:39N 19°13' W 096°08'0 0.0
2018-Apr-19 22:24N 19°13' W 096°08'0 0.0
2018-Apr-19 21:21N 19°13' W 096°08'0 0.0
2018-Apr-19 20:54N 19°13' W 096°08'0 0.0
2018-Apr-19 20:30N 19°13' W 096°08'0 0.0
2018-Apr-19 19:57N 19°13' W 096°08'0 0.0
2018-Apr-19 19:21N 19°13' W 096°08'0 0.0
2018-Apr-19 18:09N 19°13' W 096°08'0 0.0
2018-Apr-19 17:57N 19°13' W 096°08'0 0.0
2018-Apr-19 16:51N 19°13' W 096°08'0 1.1
2018-Apr-19 16:29N 19°12' W 096°08'4 8.1
2018-Apr-19 15:59N 19°12' W 096°04'3 7.1
2018-Apr-19 15:30N 19°13' W 096°01'4 8.2
2018-Apr-19 14:59N 19°17' W 096°00'511.2
2018-Apr-19 14:30N 19°22' W 096°02'816.7
2018-Apr-19 14:00N 19°30' W 096°06'  
2018-Apr-15 11:59N 25°23' W 079°33'715.6
2018-Apr-15 11:30N 25°30' W 079°31'815.5
2018-Apr-15 11:00N 25°38' W 079°30'815.5
2018-Apr-15 10:31N 25°45' W 079°28'815.5
2018-Apr-15 10:00N 25°53' W 079°25'1115.7
2018-Apr-15 09:18N 26°03' W 079°22'516.6
2018-Apr-15 09:00N 26°07' W 079°18'  
2018-Apr-11 07:19N 26°11' W 078°32'1 0.6
2018-Apr-11 05:59N 26°11' W 078°33'0 0.5
2018-Apr-11 05:30N 26°11' W 078°33'0 0.4
2018-Apr-11 04:55N 26°11' W 078°33'0 0.6
2018-Apr-11 04:30N 26°11' W 078°33'0 0.7
2018-Apr-11 04:00N 26°12' W 078°33'0 0.6
2018-Apr-11 03:30N 26°12' W 078°33'35 5.1
2018-Apr-10 20:41N 26°36' W 079°02'210.4
2018-Apr-10 20:30N 26°37' W 079°03'510.5
2018-Apr-10 19:59N 26°42' W 079°06'510.1
2018-Apr-10 19:30N 26°47' W 079°07'101 7.3
2018-Apr-10 05:39N 27°53' W 077°40'1 9.3
2018-Apr-10 05:30N 27°53' W 077°39'5 9.2
2018-Apr-10 05:00N 27°54' W 077°34'  

Dump ship's entire track history